Time;durP1;ratioP1;P1;durP2;ratioP2;P2;SDS_P1;SDS_P2;PMS_P1;PMS_P2;Temp;Humidity;BMP_temperature;BMP_pressure;BME280_temperature;BME280_humidity;BME280_pressure;Samples;Min_cycle;Max_cycle;Signal;HPM_P1;HPM_P2
2022/01/26 00:06:28;;;;;;;94.03;34.75;;;3.90;99.90;;;;;;5093797;28;20119;-70
2022/01/26 00:08:54;;;;;;;88.47;34.15;;;3.80;99.90;;;;;;5094416;28;20534;-70
2022/01/26 00:11:20;;;;;;;92.57;37.92;;;3.90;99.90;;;;;;5093990;28;20408;-70
2022/01/26 00:13:45;;;;;;;93.55;33.92;;;3.90;99.90;;;;;;5093859;28;20071;-70
2022/01/26 00:16:25;;;;;;;104.47;36.65;;;3.80;99.90;;;;;;5092657;28;20045;-69
2022/01/26 00:18:54;;;;;;;97.40;37.55;;;3.90;99.90;;;;;;5094204;28;20040;-70
2022/01/26 00:21:36;;;;;;;88.65;34.20;;;3.90;99.90;;;;;;5094006;28;20412;-70
2022/01/26 00:29:18;;;;;;;93.70;37.45;;;3.90;99.90;;;;;;5082777;28;20044;-70
2022/01/26 00:40:39;;;;;;;84.57;31.42;;;3.80;99.90;;;;;;5092164;28;20044;-70
2022/01/26 00:43:12;;;;;;;87.03;34.30;;;3.90;99.90;;;;;;5092346;28;20047;-70
2022/01/26 00:45:37;;;;;;;88.25;33.70;;;3.80;99.90;;;;;;5093192;28;20380;-70
2022/01/26 00:48:07;;;;;;;87.38;33.08;;;3.90;99.90;;;;;;5092152;28;20066;-70
2022/01/26 00:50:34;;;;;;;89.78;34.08;;;3.70;99.90;;;;;;5093372;28;20044;-70
2022/01/26 00:53:00;;;;;;;94.80;34.90;;;3.90;99.90;;;;;;5092303;28;20036;-70
2022/01/26 00:55:26;;;;;;;96.07;35.15;;;3.90;99.90;;;;;;5095548;28;20098;-70
2022/01/26 00:57:52;;;;;;;92.28;34.33;;;3.80;99.90;;;;;;5098558;28;20113;-70
2022/01/26 01:00:21;;;;;;;97.90;35.05;;;3.80;99.90;;;;;;5098822;28;20044;-70
2022/01/26 01:02:48;;;;;;;86.18;33.13;;;3.80;99.90;;;;;;5098739;28;20054;-70
2022/01/26 01:05:19;;;;;;;80.35;33.95;;;3.90;99.90;;;;;;5098818;28;20044;-70
2022/01/26 01:07:47;;;;;;;91.50;34.03;;;3.90;99.90;;;;;;5099774;28;20490;-68
2022/01/26 01:10:16;;;;;;;89.78;35.45;;;3.90;99.90;;;;;;5100278;28;20032;-68
2022/01/26 01:12:44;;;;;;;94.60;33.08;;;3.90;99.90;;;;;;5100051;28;20506;-67
2022/01/26 01:15:11;;;;;;;92.60;33.95;;;3.80;99.90;;;;;;5100347;28;20036;-67
2022/01/26 01:17:44;;;;;;;90.65;34.20;;;3.90;99.90;;;;;;5098538;28;20048;-67
2022/01/26 01:26:04;;;;;;;99.07;36.80;;;3.80;99.90;;;;;;5099054;28;20228;-68
2022/01/26 01:28:43;;;;;;;97.00;34.63;;;3.80;99.90;;;;;;5099916;28;20036;-68
2022/01/26 01:31:15;;;;;;;88.57;33.90;;;3.70;99.90;;;;;;5099704;28;20044;-68
2022/01/26 01:33:45;;;;;;;97.35;35.58;;;3.80;99.90;;;;;;5100254;28;20067;-68
2022/01/26 01:36:12;;;;;;;100.18;36.75;;;3.80;99.90;;;;;;5099791;28;20091;-68
2022/01/26 01:38:42;;;;;;;95.85;35.78;;;3.80;99.90;;;;;;5099762;28;20046;-68
2022/01/26 01:41:08;;;;;;;92.90;34.40;;;3.80;99.90;;;;;;5099794;28;20039;-67
2022/01/26 01:43:34;;;;;;;95.43;35.25;;;3.80;99.90;;;;;;5099817;28;20551;-68
2022/01/26 01:45:59;;;;;;;87.60;34.65;;;3.80;99.90;;;;;;5099674;28;20036;-67
2022/01/26 01:48:31;;;;;;;103.68;38.63;;;3.80;99.90;;;;;;5099857;28;20036;-68
2022/01/26 01:51:00;;;;;;;102.30;37.33;;;3.80;99.90;;;;;;5099931;28;20044;-67
2022/01/26 01:53:34;;;;;;;98.03;35.28;;;3.80;99.90;;;;;;5099647;28;20575;-68
2022/01/26 01:56:00;;;;;;;94.93;34.13;;;3.70;99.90;;;;;;5081228;28;20483;-68
2022/01/26 01:58:27;;;;;;;102.55;38.08;;;3.80;99.90;;;;;;5098424;28;20032;-67
2022/01/26 02:00:53;;;;;;;99.10;37.15;;;3.80;99.90;;;;;;5098294;28;20048;-67
2022/01/26 02:03:18;;;;;;;103.57;39.90;;;3.90;99.90;;;;;;5100056;28;20040;-67
2022/01/26 02:05:44;;;;;;;106.18;38.20;;;3.80;99.90;;;;;;5099542;28;20169;-70
2022/01/26 02:08:10;;;;;;;106.10;38.95;;;4.00;99.90;;;;;;5095226;28;20032;-70
2022/01/26 02:10:36;;;;;;;105.45;38.13;;;3.80;99.90;;;;;;5078115;28;20052;-70
2022/01/26 02:13:13;;;;;;;103.47;39.38;;;3.70;99.90;;;;;;5096610;28;20042;-70
2022/01/26 02:15:50;;;;;;;100.25;38.50;;;3.70;99.90;;;;;;5094687;28;20046;-68
2022/01/26 02:56:36;;;;;;;98.63;35.88;;;3.70;99.90;;;;;;5095498;28;20072;-68
2022/01/26 02:59:31;;;;;;;101.28;36.17;;;3.70;99.90;;;;;;5095667;28;20047;-67
2022/01/26 03:02:01;;;;;;;93.32;35.70;;;3.60;99.90;;;;;;5095466;28;20044;-68
2022/01/26 03:04:46;;;;;;;99.15;36.42;;;3.60;99.90;;;;;;5095190;28;20097;-68
2022/01/26 03:10:25;;;;;;;97.60;36.25;;;3.50;99.90;;;;;;5093190;28;20044;-68
2022/01/26 03:15:54;;;;;;;95.55;34.28;;;3.60;99.90;;;;;;5088905;28;20044;-67
2022/01/26 03:18:50;;;;;;;104.13;37.72;;;3.60;99.90;;;;;;5094758;28;20094;-68
2022/01/26 03:21:19;;;;;;;110.07;37.60;;;3.60;99.90;;;;;;5094984;28;20491;-68
2022/01/26 03:29:26;;;;;;;99.15;37.42;;;3.50;99.90;;;;;;5093657;28;20043;-67
2022/01/26 03:32:34;;;;;;;97.65;36.22;;;3.60;99.90;;;;;;5095601;28;20115;-67
2022/01/26 03:34:38;;;;;;;105.97;36.92;;;3.60;99.90;;;;;;5094778;28;20044;-67
2022/01/26 03:37:08;;;;;;;99.40;34.72;;;3.60;99.90;;;;;;5093434;28;20128;-67
2022/01/26 03:39:42;;;;;;;96.72;35.15;;;3.60;99.90;;;;;;5094382;28;20040;-68
2022/01/26 03:42:13;;;;;;;98.68;36.85;;;3.60;99.90;;;;;;5094947;28;20411;-67
2022/01/26 03:44:40;;;;;;;93.65;35.28;;;3.60;99.90;;;;;;5094932;28;20046;-67
2022/01/26 03:47:06;;;;;;;99.88;35.72;;;3.60;99.90;;;;;;5094532;28;20426;-68
2022/01/26 03:49:32;;;;;;;100.50;39.00;;;3.60;99.90;;;;;;5094731;28;20032;-67
2022/01/26 03:51:57;;;;;;;112.28;38.17;;;3.50;99.90;;;;;;5093461;28;20412;-68
2022/01/26 03:54:23;;;;;;;101.45;34.90;;;3.60;99.90;;;;;;5094550;28;20097;-67
2022/01/26 03:56:49;;;;;;;98.88;34.97;;;3.50;99.90;;;;;;5092626;28;20036;-68
2022/01/26 03:59:15;;;;;;;93.35;36.45;;;3.60;99.90;;;;;;5094314;28;20079;-67
2022/01/26 04:01:41;;;;;;;86.05;35.25;;;3.60;99.90;;;;;;5094223;28;20128;-68
2022/01/26 04:04:07;;;;;;;100.25;35.17;;;3.60;99.90;;;;;;5093062;28;20079;-67
2022/01/26 04:06:34;;;;;;;87.38;36.03;;;3.50;99.90;;;;;;5093716;28;20036;-68
2022/01/26 04:09:01;;;;;;;99.95;34.10;;;3.50;99.90;;;;;;5093084;28;20438;-67
2022/01/26 04:14:00;;;;;;;102.35;36.10;;;3.50;99.90;;;;;;5094371;28;20040;-67
2022/01/26 04:16:26;;;;;;;94.35;35.72;;;3.40;99.90;;;;;;5093539;28;20037;-67
2022/01/26 04:18:54;;;;;;;89.35;33.72;;;3.50;99.90;;;;;;5092505;28;20388;-67
2022/01/26 04:21:47;;;;;;;100.13;34.30;;;3.50;99.90;;;;;;5094141;28;20063;-68
2022/01/26 04:26:55;;;;;;;82.72;31.95;;;3.60;99.90;;;;;;5092641;28;20157;-68
2022/01/26 04:29:27;;;;;;;82.47;33.05;;;3.60;99.90;;;;;;5093204;28;20044;-68
2022/01/26 04:31:53;;;;;;;86.50;32.33;;;3.60;99.90;;;;;;5093792;28;20044;-68
2022/01/26 04:34:19;;;;;;;84.20;31.70;;;3.60;99.90;;;;;;5093458;28;20028;-68
2022/01/26 04:36:53;;;;;;;84.05;32.22;;;3.50;99.90;;;;;;5093303;28;20040;-67
2022/01/26 04:39:24;;;;;;;78.95;30.13;;;3.60;99.90;;;;;;5093714;28;20079;-68
2022/01/26 04:41:55;;;;;;;76.90;29.55;;;3.60;99.90;;;;;;5093603;28;20040;-68
2022/01/26 04:44:28;;;;;;;80.82;32.05;;;3.60;99.90;;;;;;5093738;28;20146;-67
2022/01/26 04:46:54;;;;;;;77.15;28.83;;;3.60;99.90;;;;;;5093484;28;20044;-68
2022/01/26 04:49:20;;;;;;;75.53;30.40;;;3.60;99.90;;;;;;5093880;28;20361;-67
2022/01/26 04:51:46;;;;;;;83.53;32.10;;;3.70;99.90;;;;;;5093867;28;20152;-68
2022/01/26 04:54:12;;;;;;;83.40;31.65;;;3.60;99.90;;;;;;5092460;28;20491;-67
2022/01/26 04:56:38;;;;;;;79.47;30.75;;;3.60;99.90;;;;;;5093088;28;20043;-67
2022/01/26 04:59:04;;;;;;;77.38;30.92;;;3.60;99.90;;;;;;5093324;28;20040;-68
2022/01/26 05:01:30;;;;;;;93.38;34.38;;;3.60;99.90;;;;;;5092560;28;20082;-68
2022/01/26 05:03:55;;;;;;;82.53;32.83;;;3.60;99.90;;;;;;5093501;28;20123;-68
2022/01/26 05:06:21;;;;;;;74.65;31.02;;;3.60;99.90;;;;;;5091672;28;20040;-68
2022/01/26 05:08:46;;;;;;;87.40;34.25;;;3.60;99.90;;;;;;5092566;28;20072;-68
2022/01/26 05:11:17;;;;;;;79.18;32.00;;;3.50;99.90;;;;;;5093493;28;20047;-68
2022/01/26 05:13:43;;;;;;;78.30;30.88;;;3.60;99.90;;;;;;5092244;28;20494;-67
2022/01/26 05:16:09;;;;;;;79.35;30.67;;;3.50;99.90;;;;;;5093170;28;20075;-67
2022/01/26 05:18:35;;;;;;;79.68;31.48;;;3.60;99.90;;;;;;5093019;28;20044;-68
2022/01/26 05:21:01;;;;;;;75.35;31.65;;;3.60;99.90;;;;;;5091968;28;20055;-68
2022/01/26 05:23:26;;;;;;;75.00;29.88;;;3.60;99.90;;;;;;5093182;28;20040;-68
2022/01/26 05:25:53;;;;;;;85.07;33.50;;;3.50;99.90;;;;;;5092995;28;20040;-68
2022/01/26 05:28:18;;;;;;;83.72;32.67;;;3.50;99.90;;;;;;5092180;28;20040;-67
2022/01/26 05:30:44;;;;;;;76.90;31.98;;;3.50;99.90;;;;;;5093397;28;20483;-68
2022/01/26 05:33:10;;;;;;;77.50;29.65;;;3.50;99.90;;;;;;5093250;28;20044;-68
2022/01/26 05:35:35;;;;;;;70.93;30.92;;;3.50;99.90;;;;;;5092888;28;20043;-68
2022/01/26 05:38:01;;;;;;;76.88;31.65;;;3.50;99.90;;;;;;5091769;28;20073;-68
2022/01/26 05:40:27;;;;;;;71.57;29.02;;;3.50;99.90;;;;;;5091659;28;20043;-68
2022/01/26 05:42:53;;;;;;;67.30;29.02;;;3.50;99.90;;;;;;5094173;28;20040;-68
2022/01/26 05:45:26;;;;;;;71.30;29.70;;;3.60;99.90;;;;;;5096972;28;20121;-67
2022/01/26 05:47:51;;;;;;;78.47;31.00;;;3.50;99.90;;;;;;5096597;28;20028;-68
2022/01/26 05:50:19;;;;;;;74.65;29.40;;;3.60;99.90;;;;;;5096666;28;20044;-68
2022/01/26 05:52:45;;;;;;;77.68;29.23;;;3.60;99.90;;;;;;5096543;28;20504;-68
2022/01/26 05:55:10;;;;;;;70.70;28.35;;;3.50;99.90;;;;;;5096614;28;20059;-68
2022/01/26 05:57:36;;;;;;;75.93;30.60;;;3.60;99.90;;;;;;5096066;28;20480;-68
2022/01/26 06:00:04;;;;;;;78.47;29.50;;;3.50;99.90;;;;;;5097220;28;20036;-68
2022/01/26 06:02:31;;;;;;;71.03;29.58;;;3.50;99.90;;;;;;5096713;28;20048;-67
2022/01/26 06:04:56;;;;;;;71.03;29.65;;;3.50;99.90;;;;;;5096859;28;20047;-67
2022/01/26 06:07:22;;;;;;;72.97;30.23;;;3.40;99.90;;;;;;5095952;28;20035;-68
2022/01/26 06:09:48;;;;;;;76.18;30.50;;;3.50;99.90;;;;;;5096262;28;20065;-68
2022/01/26 06:12:13;;;;;;;70.68;27.95;;;3.50;99.90;;;;;;5096654;28;20300;-67
2022/01/26 06:14:39;;;;;;;64.05;26.73;;;3.50;99.90;;;;;;5095168;28;20035;-67
2022/01/26 06:17:04;;;;;;;69.25;28.90;;;3.50;99.90;;;;;;5095972;28;20093;-68
2022/01/26 06:19:30;;;;;;;66.13;25.67;;;3.50;99.90;;;;;;5096520;28;20089;-67
2022/01/26 06:21:55;;;;;;;78.25;29.92;;;3.50;99.90;;;;;;5096409;28;20114;-68
2022/01/26 06:24:21;;;;;;;69.00;26.23;;;3.50;99.90;;;;;;5096274;28;20097;-69
2022/01/26 06:26:46;;;;;;;65.50;26.77;;;3.50;99.90;;;;;;5094415;28;20062;-68
2022/01/26 06:29:12;;;;;;;64.95;26.35;;;3.50;99.90;;;;;;5096195;28;20054;-68
2022/01/26 06:31:41;;;;;;;69.20;28.98;;;3.40;99.90;;;;;;5077892;28;20066;-68
2022/01/26 06:34:10;;;;;;;65.05;27.35;;;3.50;99.90;;;;;;5095984;28;20079;-68
2022/01/26 06:36:37;;;;;;;71.53;29.48;;;3.50;99.90;;;;;;5094376;28;20040;-68
2022/01/26 06:39:04;;;;;;;64.45;27.52;;;3.40;99.90;;;;;;5095631;28;20142;-68
2022/01/26 06:41:30;;;;;;;74.30;29.15;;;3.50;99.90;;;;;;5095765;28;20048;-68
2022/01/26 06:44:07;;;;;;;66.85;25.75;;;3.40;99.90;;;;;;5094338;28;20418;-68
2022/01/26 06:46:51;;;;;;;70.75;27.42;;;3.40;99.90;;;;;;5094036;28;20553;-68
2022/01/26 06:51:52;;;;;;;70.97;28.30;;;3.40;99.90;;;;;;5094417;28;20082;-68
2022/01/26 06:54:17;;;;;;;68.55;26.20;;;3.30;99.90;;;;;;5093832;28;20040;-68
2022/01/26 06:56:45;;;;;;;65.63;25.63;;;3.40;99.90;;;;;;5093947;28;20038;-68
2022/01/26 06:59:13;;;;;;;73.22;27.55;;;3.40;99.90;;;;;;5095448;28;20048;-68
2022/01/26 07:01:41;;;;;;;70.80;28.83;;;3.40;99.90;;;;;;5094741;28;20048;-68
2022/01/26 07:04:07;;;;;;;71.57;29.00;;;3.40;99.90;;;;;;5094708;28;20445;-68
2022/01/26 07:06:33;;;;;;;65.93;26.35;;;3.40;99.90;;;;;;5093569;28;20035;-68
2022/01/26 07:08:59;;;;;;;73.20;28.35;;;3.40;99.90;;;;;;5095517;28;20084;-68
2022/01/26 07:11:24;;;;;;;67.32;28.15;;;3.40;99.90;;;;;;5094285;28;20399;-69
2022/01/26 07:13:52;;;;;;;67.18;26.25;;;3.40;99.90;;;;;;5095659;28;20036;-68
2022/01/26 07:21:47;;;;;;;66.63;28.92;;;3.50;99.90;;;;;;5095247;28;20043;-68
2022/01/26 07:24:13;;;;;;;72.40;28.73;;;3.40;99.90;;;;;;5093823;28;20465;-69
2022/01/26 07:26:38;;;;;;;74.53;28.38;;;3.30;99.90;;;;;;5093662;28;20040;-69
2022/01/26 07:29:10;;;;;;;70.05;30.05;;;3.40;99.90;;;;;;5094607;28;20058;-68
2022/01/26 07:31:38;;;;;;;75.88;29.17;;;3.40;99.90;;;;;;5093318;28;20479;-69
2022/01/26 07:34:04;;;;;;;71.13;27.30;;;3.40;99.90;;;;;;5094896;28;20043;-69
2022/01/26 07:36:29;;;;;;;72.65;30.08;;;3.40;99.90;;;;;;5094438;28;20399;-69
2022/01/26 07:39:05;;;;;;;78.32;30.85;;;3.30;99.90;;;;;;5093582;28;20552;-69
2022/01/26 07:41:30;;;;;;;75.47;29.35;;;3.30;99.90;;;;;;5093550;28;20055;-70
2022/01/26 07:43:56;;;;;;;84.90;33.03;;;3.30;99.90;;;;;;5094437;28;20467;-69
2022/01/26 07:46:22;;;;;;;80.60;31.92;;;3.40;99.90;;;;;;5094822;28;20447;-69
2022/01/26 07:48:48;;;;;;;73.53;30.50;;;3.40;99.90;;;;;;5093443;28;20040;-69
2022/01/26 07:51:14;;;;;;;81.78;32.63;;;3.30;99.90;;;;;;5094888;28;20152;-69
2022/01/26 07:53:39;;;;;;;87.35;34.13;;;3.40;99.90;;;;;;5094649;28;20036;-69
2022/01/26 07:56:05;;;;;;;88.53;34.55;;;3.30;99.90;;;;;;5093947;28;20035;-69
2022/01/26 07:58:31;;;;;;;82.63;32.17;;;3.40;99.90;;;;;;5094022;28;20036;-68
2022/01/26 08:00:57;;;;;;;83.68;36.33;;;3.40;99.90;;;;;;5093198;28;20094;-69
2022/01/26 08:03:23;;;;;;;80.95;32.25;;;3.50;99.90;;;;;;5094383;28;20043;-69
2022/01/26 08:05:48;;;;;;;84.68;33.33;;;3.40;99.90;;;;;;5092139;28;20052;-69
2022/01/26 08:08:14;;;;;;;85.97;36.08;;;3.40;99.90;;;;;;5093219;28;20051;-70
2022/01/26 08:10:41;;;;;;;87.70;35.35;;;3.40;99.90;;;;;;5094104;28;20410;-70
2022/01/26 08:13:07;;;;;;;92.28;33.92;;;3.40;99.90;;;;;;5093909;28;20044;-69
2022/01/26 08:15:32;;;;;;;86.60;35.08;;;3.40;99.90;;;;;;5093585;28;20040;-70
2022/01/26 08:17:59;;;;;;;87.75;36.25;;;3.50;99.90;;;;;;5093866;28;20047;-69
2022/01/26 08:20:25;;;;;;;91.63;37.97;;;3.50;99.90;;;;;;5093986;28;20046;-69
2022/01/26 08:22:53;;;;;;;83.90;34.10;;;3.50;99.90;;;;;;5093776;28;20407;-69
2022/01/26 08:25:21;;;;;;;89.40;36.97;;;3.50;99.90;;;;;;5093732;28;20048;-69
2022/01/26 08:27:53;;;;;;;101.30;38.92;;;3.60;99.90;;;;;;5093218;28;20044;-69
2022/01/26 08:30:20;;;;;;;87.55;37.90;;;3.60;99.90;;;;;;5092687;28;20044;-69
2022/01/26 08:32:46;;;;;;;101.90;40.65;;;3.60;99.90;;;;;;5093795;28;20044;-69
2022/01/26 08:35:11;;;;;;;99.50;40.30;;;3.60;99.90;;;;;;5093676;28;20036;-69
2022/01/26 08:37:37;;;;;;;99.47;38.83;;;3.50;99.90;;;;;;5093423;28;20031;-69
2022/01/26 08:40:04;;;;;;;98.32;39.15;;;3.60;99.90;;;;;;5093478;28;20036;-70
2022/01/26 08:42:29;;;;;;;106.18;41.83;;;3.60;99.90;;;;;;5094084;28;20104;-70
2022/01/26 08:44:55;;;;;;;97.15;40.60;;;3.60;99.90;;;;;;5093671;28;20480;-70
2022/01/26 08:47:22;;;;;;;98.68;41.03;;;3.60;99.90;;;;;;5087009;28;20028;-70
2022/01/26 08:49:47;;;;;;;98.45;39.83;;;3.60;99.90;;;;;;5082281;28;20035;-70
2022/01/26 08:52:13;;;;;;;102.75;44.25;;;3.60;99.90;;;;;;5082295;28;20111;-70
2022/01/26 08:54:39;;;;;;;103.00;42.53;;;3.60;99.90;;;;;;5086231;28;20031;-69
2022/01/26 08:57:04;;;;;;;106.25;43.78;;;3.70;99.90;;;;;;5093256;28;20031;-69
2022/01/26 08:59:30;;;;;;;106.90;42.13;;;3.70;99.90;;;;;;5092024;28;20067;-69
2022/01/26 09:01:56;;;;;;;107.13;41.85;;;3.80;99.90;;;;;;5093814;28;20119;-70
2022/01/26 09:04:21;;;;;;;109.90;42.85;;;3.70;99.90;;;;;;5093681;28;20125;-71
2022/01/26 09:06:52;;;;;;;102.80;44.38;;;3.70;99.90;;;;;;5093086;28;20373;-70
2022/01/26 09:09:20;;;;;;;103.43;42.28;;;3.70;99.90;;;;;;5093154;28;20093;-70
2022/01/26 09:11:47;;;;;;;114.82;45.00;;;3.70;99.90;;;;;;5093107;28;20499;-69
2022/01/26 09:14:18;;;;;;;106.63;44.15;;;3.70;99.90;;;;;;5092365;28;20048;-70
2022/01/26 09:16:45;;;;;;;110.30;46.20;;;3.70;99.90;;;;;;5095998;28;20036;-70
2022/01/26 09:19:26;;;;;;;105.80;45.20;;;3.80;99.90;;;;;;5099013;28;20040;-70
2022/01/26 09:21:53;;;;;;;114.55;45.58;;;3.80;99.90;;;;;;5097292;28;20044;-69
2022/01/26 09:24:19;;;;;;;109.93;45.55;;;3.80;99.90;;;;;;5095960;28;20047;-69
2022/01/26 09:26:44;;;;;;;113.57;45.40;;;3.90;99.90;;;;;;5097117;28;20398;-68
2022/01/26 09:29:10;;;;;;;103.57;42.63;;;3.80;99.90;;;;;;5097277;28;20463;-69
2022/01/26 09:31:36;;;;;;;108.68;44.65;;;3.80;99.90;;;;;;5097030;28;20542;-69
2022/01/26 09:34:02;;;;;;;104.47;45.88;;;3.90;99.90;;;;;;5097015;28;20395;-69
2022/01/26 09:36:28;;;;;;;103.78;43.67;;;3.90;99.90;;;;;;5095423;28;20051;-69
2022/01/26 09:38:53;;;;;;;111.40;45.17;;;3.90;99.90;;;;;;5096762;28;20064;-69
2022/01/26 09:41:19;;;;;;;108.35;44.63;;;3.90;99.90;;;;;;5095587;28;20043;-69
2022/01/26 09:43:45;;;;;;;111.97;47.63;;;3.90;99.90;;;;;;5097189;28;20032;-69
2022/01/26 09:46:14;;;;;;;107.38;47.10;;;3.90;99.90;;;;;;5096827;28;20032;-70
2022/01/26 09:48:42;;;;;;;113.05;45.45;;;4.00;99.90;;;;;;5077766;28;20048;-70
2022/01/26 09:51:12;;;;;;;103.72;43.90;;;4.00;99.90;;;;;;5087044;28;20095;-70
2022/01/26 09:53:37;;;;;;;107.05;44.42;;;4.00;99.90;;;;;;5096337;28;20483;-70
2022/01/26 09:56:03;;;;;;;110.22;46.67;;;4.00;99.90;;;;;;5096285;28;20028;-69
2022/01/26 09:58:29;;;;;;;106.38;46.22;;;4.10;99.90;;;;;;5095661;28;20456;-70
2022/01/26 10:01:04;;;;;;;111.72;46.15;;;4.10;99.90;;;;;;5095372;28;20420;-70
2022/01/26 10:03:33;;;;;;;120.95;48.25;;;4.10;99.90;;;;;;5054974;28;20084;-70
2022/01/26 10:05:59;;;;;;;104.00;44.05;;;4.10;99.90;;;;;;5055657;28;20489;-69
2022/01/26 10:17:17;;;;;;;105.95;46.72;;;4.20;99.90;;;;;;5075616;28;20036;-70
2022/01/26 10:19:20;;;;;;;111.30;47.38;;;4.20;99.90;;;;;;5083770;28;20139;-70
2022/01/26 10:21:50;;;;;;;122.28;47.28;;;4.20;99.90;;;;;;5086199;28;20562;-70
2022/01/26 10:24:20;;;;;;;102.55;43.80;;;4.30;99.90;;;;;;5088321;28;20437;-70
2022/01/26 10:26:55;;;;;;;101.80;43.92;;;4.30;99.90;;;;;;5096019;28;20055;-69
2022/01/26 10:29:22;;;;;;;103.32;41.67;;;4.30;99.90;;;;;;5095269;28;20044;-70
2022/01/26 10:31:47;;;;;;;102.15;43.28;;;4.30;99.90;;;;;;5094486;28;20054;-70
2022/01/26 10:34:19;;;;;;;99.32;42.10;;;4.40;99.90;;;;;;5091620;28;20036;-70
2022/01/26 10:36:57;;;;;;;110.65;43.95;;;4.40;99.90;;;;;;5084087;28;20124;-70
2022/01/26 10:39:37;;;;;;;95.00;42.22;;;4.40;99.90;;;;;;5084985;28;20039;-70
2022/01/26 10:42:08;;;;;;;103.50;43.65;;;4.40;99.90;;;;;;5094561;28;20499;-70
2022/01/26 10:44:45;;;;;;;104.40;43.85;;;4.40;99.90;;;;;;5092515;28;20535;-70
2022/01/26 10:47:11;;;;;;;94.72;43.95;;;4.40;99.90;;;;;;5094469;28;20039;-70
2022/01/26 10:52:27;;;;;;;102.18;41.67;;;4.60;99.90;;;;;;5094336;28;20583;-70
2022/01/26 10:54:52;;;;;;;89.88;39.13;;;4.60;99.90;;;;;;5095588;28;20082;-70
2022/01/26 10:57:19;;;;;;;93.93;38.85;;;4.70;99.90;;;;;;5093799;28;20403;-69
2022/01/26 10:59:46;;;;;;;94.03;39.53;;;4.60;99.90;;;;;;5095632;28;20048;-70
2022/01/26 11:02:13;;;;;;;96.18;38.30;;;4.70;99.90;;;;;;5095601;28;20087;-70
2022/01/26 11:04:42;;;;;;;91.05;38.72;;;4.70;99.90;;;;;;5094337;28;20080;-69
2022/01/26 11:07:10;;;;;;;84.68;37.83;;;4.80;99.90;;;;;;5094950;28;20044;-72
2022/01/26 11:09:39;;;;;;;93.55;40.33;;;4.80;99.90;;;;;;5095354;28;20081;-69
2022/01/26 11:12:10;;;;;;;84.85;38.25;;;4.70;99.90;;;;;;5095103;28;20044;-69
2022/01/26 11:14:50;;;;;;;95.13;39.20;;;4.80;99.90;;;;;;5093780;28;20044;-69
2022/01/26 11:17:34;;;;;;;95.10;38.72;;;4.80;99.90;;;;;;5093750;28;20498;-69
2022/01/26 11:20:01;;;;;;;87.22;37.42;;;4.80;99.90;;;;;;5095216;28;20043;-69
2022/01/26 11:22:30;;;;;;;87.68;38.03;;;4.80;99.90;;;;;;5094238;28;20063;-69
2022/01/26 11:25:10;;;;;;;85.20;39.33;;;4.80;99.90;;;;;;5093746;28;20096;-69
2022/01/26 11:27:41;;;;;;;85.20;35.97;;;4.80;99.90;;;;;;5094834;28;20453;-69
2022/01/26 11:30:28;;;;;;;95.75;38.05;;;4.80;99.90;;;;;;5095017;28;20396;-69
2022/01/26 11:33:12;;;;;;;81.03;34.20;;;4.80;99.90;;;;;;5094538;28;20043;-69
2022/01/26 11:35:39;;;;;;;88.00;38.65;;;4.80;99.90;;;;;;5094769;28;20043;-69
2022/01/26 11:46:36;;;;;;;91.43;36.10;;;4.70;99.90;;;;;;5094804;28;20048;-70
2022/01/26 11:49:08;;;;;;;98.28;38.75;;;4.90;99.90;;;;;;5095885;28;20132;-70
2022/01/26 11:51:47;;;;;;;93.10;38.28;;;4.80;99.90;;;;;;5080076;28;20032;-71
2022/01/26 11:54:15;;;;;;;95.75;38.63;;;4.90;99.90;;;;;;5080721;28;20103;-70
2022/01/26 11:56:57;;;;;;;89.35;38.03;;;4.80;99.90;;;;;;5083039;28;20042;-70
2022/01/26 11:59:25;;;;;;;91.72;37.47;;;4.80;99.90;;;;;;5083330;28;20029;-70
2022/01/26 12:01:59;;;;;;;93.32;37.92;;;5.00;99.90;;;;;;5080379;28;20044;-70
2022/01/26 12:04:25;;;;;;;90.65;36.95;;;4.80;99.90;;;;;;5088865;28;20042;-69
2022/01/26 12:06:58;;;;;;;98.40;37.78;;;4.90;99.90;;;;;;5093832;28;20476;-70
2022/01/26 12:09:24;;;;;;;86.43;36.53;;;4.80;99.90;;;;;;5093215;28;20476;-70
2022/01/26 12:11:55;;;;;;;88.82;37.47;;;4.80;99.90;;;;;;5093365;28;20042;-70
2022/01/26 12:14:22;;;;;;;105.80;42.75;;;4.80;99.90;;;;;;5094381;28;20047;-70
2022/01/26 12:16:51;;;;;;;96.03;41.15;;;4.90;99.90;;;;;;5092916;28;20044;-70
2022/01/26 12:19:32;;;;;;;97.68;38.33;;;4.90;99.90;;;;;;5093069;28;20032;-70
2022/01/26 12:33:53;;;;;;;99.13;39.60;;;5.00;99.90;;;;;;5092649;28;20400;-70
2022/01/26 12:36:22;;;;;;;93.65;36.38;;;5.00;99.90;;;;;;5092059;28;20132;-69
2022/01/26 12:38:57;;;;;;;98.10;38.63;;;5.00;99.90;;;;;;5085434;28;20040;-70
2022/01/26 12:41:34;;;;;;;99.57;37.55;;;5.00;99.90;;;;;;5082602;28;20028;-69
2022/01/26 12:44:08;;;;;;;94.18;36.90;;;5.00;99.90;;;;;;5081905;28;20047;-69
2022/01/26 12:46:35;;;;;;;87.97;35.67;;;4.90;99.90;;;;;;5079713;28;20090;-70
2022/01/26 12:49:07;;;;;;;84.97;35.55;;;4.90;99.90;;;;;;5075039;28;20048;-69
2022/01/26 12:51:43;;;;;;;89.65;36.60;;;5.00;99.90;;;;;;5073194;28;20040;-70
2022/01/26 12:54:09;;;;;;;94.47;37.20;;;4.90;99.90;;;;;;5073390;28;20431;-70
2022/01/26 12:56:35;;;;;;;94.53;37.08;;;4.90;99.90;;;;;;5073133;28;20032;-69
2022/01/26 12:59:08;;;;;;;83.22;35.28;;;4.90;99.90;;;;;;5073269;28;20035;-70
2022/01/26 13:01:35;;;;;;;99.03;38.75;;;4.90;99.90;;;;;;5073564;28;20540;-69
2022/01/26 13:04:03;;;;;;;84.60;34.38;;;4.90;99.90;;;;;;5073580;28;20404;-69
2022/01/26 13:06:37;;;;;;;91.18;39.58;;;4.90;99.90;;;;;;5071784;28;20067;-70
2022/01/26 13:09:16;;;;;;;96.80;37.72;;;5.00;99.90;;;;;;5073061;28;20395;-69
2022/01/26 13:11:44;;;;;;;92.75;37.13;;;5.00;99.90;;;;;;5072822;28;20488;-70
2022/01/26 13:14:22;;;;;;;83.78;35.22;;;4.90;99.90;;;;;;5071748;28;20404;-70
2022/01/26 13:17:24;;;;;;;90.13;34.80;;;5.00;99.90;;;;;;5071640;28;20040;-70
2022/01/26 13:22:54;;;;;;;87.75;35.95;;;5.10;99.90;;;;;;5073070;28;20572;-70
2022/01/26 13:36:06;;;;;;;85.80;34.60;;;5.10;99.90;;;;;;5072439;28;20044;-70
2022/01/26 13:38:53;;;;;;;86.38;34.38;;;5.20;99.90;;;;;;5071896;28;20044;-67
2022/01/26 13:49:45;;;;;;;87.28;35.67;;;5.20;99.90;;;;;;5072058;28;20156;-70
2022/01/26 14:00:05;;;;;;;72.75;31.75;;;5.30;99.90;;;;;;5072624;28;20040;-70
2022/01/26 14:02:32;;;;;;;73.28;31.23;;;5.30;99.90;;;;;;5078063;28;20071;-68
2022/01/26 14:04:58;;;;;;;77.75;31.88;;;5.30;99.90;;;;;;5081424;28;20044;-68
2022/01/26 14:07:24;;;;;;;71.13;31.58;;;5.30;99.90;;;;;;5074502;28;20072;-68
2022/01/26 14:09:49;;;;;;;79.95;32.25;;;5.40;99.90;;;;;;5079289;28;20408;-67
2022/01/26 14:12:20;;;;;;;74.75;32.33;;;5.30;99.90;;;;;;5093772;28;20039;-67
2022/01/26 14:14:51;;;;;;;68.05;31.67;;;5.40;99.90;;;;;;5096290;28;20074;-67
2022/01/26 14:17:26;;;;;;;73.60;31.27;;;5.40;99.90;;;;;;5094619;28;20040;-67
2022/01/26 14:20:17;;;;;;;73.05;29.92;;;5.40;99.90;;;;;;5096360;28;20054;-68
2022/01/26 14:27:45;;;;;;;68.72;28.77;;;5.50;99.90;;;;;;5086713;28;20496;-68
2022/01/26 14:39:37;;;;;;;62.70;28.05;;;5.40;99.90;;;;;;5085630;28;20518;-67
2022/01/26 14:52:04;;;;;;;61.92;29.05;;;5.50;99.90;;;;;;5082809;28;20123;-67
2022/01/26 15:34:45;;;;;;;68.95;29.20;;;5.50;99.90;;;;;;5094925;28;20055;-69
2022/01/26 15:40:20;;;;;;;62.35;26.77;;;5.60;99.90;;;;;;5093522;28;20089;-68
2022/01/26 15:50:44;;;;;;;63.78;27.70;;;5.60;99.90;;;;;;5083040;28;20056;-68
2022/01/26 16:35:07;;;;;;;67.38;29.17;;;5.60;99.90;;;;;;5091746;28;20051;-69
2022/01/26 16:36:57;;;;;;;66.13;28.75;;;5.70;99.90;;;;;;5091453;28;20484;-69
2022/01/26 16:39:09;;;;;;;67.00;28.77;;;5.60;99.90;;;;;;5076199;28;20048;-69
2022/01/26 16:52:25;;;;;;;68.32;29.70;;;5.70;99.90;;;;;;5072096;28;20127;-69
2022/01/26 16:53:16;;;;;;;65.28;29.42;;;5.70;99.90;;;;;;5073552;28;20052;-69
2022/01/26 18:17:05;;;;;;;62.17;30.20;;;5.70;99.90;;;;;;5074328;28;20080;-69
2022/01/26 18:49:21;;;;;;;57.38;27.20;;;5.90;99.90;;;;;;5073703;28;20044;-69
2022/01/26 18:51:55;;;;;;;57.92;27.27;;;5.90;99.90;;;;;;5061774;28;20510;-69
2022/01/26 18:54:24;;;;;;;64.25;28.60;;;5.90;99.90;;;;;;5075656;28;20032;-69
2022/01/26 18:56:51;;;;;;;60.92;27.65;;;5.90;99.90;;;;;;5075369;28;20472;-69
2022/01/26 18:59:17;;;;;;;58.05;27.30;;;5.90;99.90;;;;;;5063341;28;20048;-69
2022/01/26 19:01:44;;;;;;;54.65;27.27;;;5.90;99.90;;;;;;5073772;28;20393;-69
2022/01/26 19:04:10;;;;;;;55.53;25.65;;;5.90;99.90;;;;;;5075434;28;20032;-69
2022/01/26 19:06:39;;;;;;;60.30;26.73;;;6.00;99.90;;;;;;5074797;28;20549;-69
2022/01/26 19:09:06;;;;;;;51.13;25.77;;;6.00;99.90;;;;;;5066171;28;20048;-69
2022/01/26 19:11:32;;;;;;;51.42;25.52;;;6.00;99.90;;;;;;5068808;28;20477;-69